DAL1454 KTPA-KDFW
Flight info
| Callsign | DAL1454 |
|---|---|
| Flight time | N/A |
| Altitude | 38000 |
| Route | DORMR3 FROOT ROZZI Y280 REDFN Q105 HRV J58 AEX PNUTS BEREE3 |
| Aircraft | A35K/H-SDE2E3GHIJ3J4J5LM1ORWXY/LB1D1 |
Departure
| Time | 2026-05-04 13:30 |
|---|---|
| Airport | Tampa International Airport (KTPA) |
Arrival
| Time | N/A |
|---|---|
| Airport | Dallas Fort Worth International Airport (KDFW) |
| Time | Latitude | Longitude | Altitude | Speed | Heading |
|---|---|---|---|---|---|
| 2026-05-04 13:30 | 28.03784 | -82.60209 | 2860 ft | 331 kts | 236° |
| 2026-05-04 13:30 | 28.02088 | -82.61893 | 4256 ft | 326 kts | 204° |
| 2026-05-04 13:31 | 27.99967 | -82.62405 | 5781 ft | 315 kts | 175° |
| 2026-05-04 13:31 | 27.97904 | -82.61787 | 7058 ft | 312 kts | 155° |
| 2026-05-04 13:31 | 27.95867 | -82.60882 | 8001 ft | 323 kts | 169° |
| 2026-05-04 13:31 | 27.93627 | -82.60866 | 9038 ft | 325 kts | 195° |
| 2026-05-04 13:32 | 27.91611 | -82.61865 | 10275 ft | 319 kts | 218° |
| 2026-05-04 13:32 | 27.90108 | -82.63660 | 11361 ft | 319 kts | 240° |
| 2026-05-04 13:32 | 27.89331 | -82.66010 | 12315 ft | 324 kts | 261° |
| 2026-05-04 13:32 | 27.88977 | -82.68506 | 13274 ft | 330 kts | 259° |
| 2026-05-04 13:33 | 27.88304 | -82.70993 | 14188 ft | 338 kts | 250° |
| 2026-05-04 13:33 | 27.87294 | -82.73425 | 15188 ft | 343 kts | 244° |
| 2026-05-04 13:33 | 27.86090 | -82.75735 | 16137 ft | 346 kts | 240° |
| 2026-05-04 13:33 | 27.84753 | -82.77994 | 17070 ft | 350 kts | 238° |
| 2026-05-04 13:34 | 27.83332 | -82.80233 | 18020 ft | 352 kts | 237° |
| 2026-05-04 13:34 | 27.81883 | -82.82437 | 18938 ft | 355 kts | 237° |
| 2026-05-04 13:34 | 27.80392 | -82.84656 | 19843 ft | 357 kts | 237° |
| 2026-05-04 13:34 | 27.78879 | -82.86885 | 20698 ft | 361 kts | 237° |
| 2026-05-04 13:35 | 27.77341 | -82.89138 | 21560 ft | 363 kts | 237° |
| 2026-05-04 13:35 | 27.74244 | -82.93653 | 23221 ft | 369 kts | 238° |
| 2026-05-04 13:35 | 27.72670 | -82.95947 | 24049 ft | 371 kts | 238° |
| 2026-05-04 13:36 | 27.71089 | -82.98246 | 24807 ft | 374 kts | 238° |
| 2026-05-04 13:36 | 27.69483 | -83.00579 | 25572 ft | 376 kts | 238° |
| 2026-05-04 13:36 | 27.67928 | -83.02929 | 26300 ft | 374 kts | 244° |
| 2026-05-04 13:36 | 27.66804 | -83.05525 | 26990 ft | 369 kts | 255° |
| 2026-05-04 13:37 | 27.66204 | -83.08318 | 27718 ft | 364 kts | 265° |
| 2026-05-04 13:37 | 27.65913 | -83.11143 | 28398 ft | 365 kts | 267° |
| 2026-05-04 13:37 | 27.65644 | -83.13994 | 28991 ft | 368 kts | 268° |
| 2026-05-04 13:37 | 27.65469 | -83.15879 | 29370 ft | 369 kts | 268° |
| 2026-05-04 13:38 | 27.65118 | -83.19717 | 30102 ft | 372 kts | 267° |
| 2026-05-04 13:38 | 27.64847 | -83.22650 | 30618 ft | 375 kts | 267° |
| 2026-05-04 13:38 | 27.64573 | -83.25586 | 31100 ft | 378 kts | 268° |
| 2026-05-04 13:38 | 27.64301 | -83.28509 | 31551 ft | 380 kts | 267° |
| 2026-05-04 13:39 | 27.64028 | -83.31477 | 32009 ft | 383 kts | 268° |
| 2026-05-04 13:39 | 27.63745 | -83.34495 | 32454 ft | 385 kts | 268° |
| 2026-05-04 13:39 | 27.63463 | -83.37507 | 32885 ft | 387 kts | 268° |
| 2026-05-04 13:39 | 27.63179 | -83.40533 | 33316 ft | 390 kts | 268° |
| 2026-05-04 13:40 | 27.62894 | -83.43558 | 33703 ft | 392 kts | 268° |
| 2026-05-04 13:40 | 27.62606 | -83.46618 | 34083 ft | 395 kts | 268° |
| 2026-05-04 13:40 | 27.62313 | -83.49731 | 34444 ft | 398 kts | 268° |
| 2026-05-04 13:40 | 27.62022 | -83.52807 | 34810 ft | 401 kts | 267° |
| 2026-05-04 13:41 | 27.61721 | -83.55952 | 35139 ft | 404 kts | 267° |
| 2026-05-04 13:41 | 27.61422 | -83.59105 | 35456 ft | 406 kts | 267° |
| 2026-05-04 13:41 | 27.61121 | -83.62266 | 35777 ft | 409 kts | 267° |
| 2026-05-04 13:42 | 27.60504 | -83.68687 | 36378 ft | 414 kts | 266° |
| 2026-05-04 13:42 | 27.60193 | -83.71909 | 36653 ft | 417 kts | 266° |
| 2026-05-04 13:42 | 27.59882 | -83.75143 | 36948 ft | 419 kts | 266° |
| 2026-05-04 13:42 | 27.59560 | -83.78451 | 37217 ft | 422 kts | 266° |
| 2026-05-04 13:43 | 27.59244 | -83.81732 | 37442 ft | 424 kts | 266° |
| 2026-05-04 13:43 | 27.58919 | -83.85062 | 37673 ft | 427 kts | 266° |
| 2026-05-04 13:43 | 27.58594 | -83.88391 | 37875 ft | 429 kts | 266° |
| 2026-05-04 13:43 | 27.58267 | -83.91734 | 38052 ft | 431 kts | 266° |
| 2026-05-04 13:44 | 27.57604 | -83.98453 | 38065 ft | 432 kts | 266° |
| 2026-05-04 13:44 | 27.56940 | -84.05166 | 38067 ft | 432 kts | 266° |
| 2026-05-04 13:45 | 27.56282 | -84.11839 | 38071 ft | 431 kts | 267° |
| 2026-05-04 13:45 | 27.56308 | -84.18550 | 38067 ft | 429 kts | 277° |
| 2026-05-04 13:46 | 27.57264 | -84.25195 | 38068 ft | 428 kts | 280° |
| 2026-05-04 13:46 | 27.58321 | -84.31753 | 38073 ft | 429 kts | 281° |
| 2026-05-04 13:47 | 27.59390 | -84.38375 | 38074 ft | 429 kts | 281° |
| 2026-05-04 13:47 | 27.60458 | -84.44979 | 38072 ft | 429 kts | 281° |
| 2026-05-04 13:48 | 27.61518 | -84.51545 | 38073 ft | 429 kts | 281° |
| 2026-05-04 13:48 | 27.62578 | -84.58156 | 38074 ft | 429 kts | 281° |
| 2026-05-04 13:49 | 27.63636 | -84.64770 | 38072 ft | 429 kts | 281° |
| 2026-05-04 13:49 | 27.64692 | -84.71401 | 38078 ft | 429 kts | 281° |
| 2026-05-04 13:50 | 27.65738 | -84.78007 | 38078 ft | 429 kts | 280° |
| 2026-05-04 13:50 | 27.66787 | -84.84627 | 38080 ft | 429 kts | 281° |
| 2026-05-04 13:51 | 27.67833 | -84.91249 | 38082 ft | 429 kts | 281° |
| 2026-05-04 13:51 | 27.68875 | -84.97865 | 38080 ft | 429 kts | 281° |
| 2026-05-04 13:52 | 27.70434 | -85.07802 | 38083 ft | 429 kts | 281° |
| 2026-05-04 13:53 | 27.71460 | -85.14381 | 38084 ft | 429 kts | 281° |
| 2026-05-04 13:53 | 27.72486 | -85.20985 | 38087 ft | 429 kts | 281° |
| 2026-05-04 13:54 | 27.74435 | -85.30819 | 38085 ft | 428 kts | 289° |
| 2026-05-04 13:55 | 27.78031 | -85.40035 | 38086 ft | 429 kts | 294° |
| 2026-05-04 13:55 | 27.81825 | -85.49162 | 38084 ft | 429 kts | 294° |
| 2026-05-04 13:56 | 27.84348 | -85.55233 | 38091 ft | 428 kts | 294° |
| 2026-05-04 13:57 | 27.88135 | -85.64373 | 38086 ft | 429 kts | 294° |
| 2026-05-04 13:58 | 27.93165 | -85.76588 | 38086 ft | 429 kts | 294° |
| 2026-05-04 13:58 | 27.96930 | -85.85728 | 38089 ft | 429 kts | 294° |
| 2026-05-04 13:59 | 27.99453 | -85.91867 | 38090 ft | 429 kts | 294° |
| 2026-05-04 14:00 | 28.03200 | -86.00996 | 38091 ft | 428 kts | 294° |
| 2026-05-04 14:00 | 28.06965 | -86.10177 | 38090 ft | 429 kts | 294° |
| 2026-05-04 14:01 | 28.09472 | -86.16305 | 38089 ft | 429 kts | 294° |